Charleston, SC (29407)

8:24 AM EDT on May 25, 2015 (GMT -0400)
West Ashley - Magnolia Rd | | Change Station
CLOSE
Current Station
Personal Weather Station
Location: Charleston, SC
Elevation: 13 ft
Nearby Weather Stations

Elev 13 ft 32.78 °N, 79.99 °W | Updated 2 seconds ago

Overcast
Overcast
74.6 °F
Feels Like 76 °F
N
2.0
Wind Variable Wind from ESE
Gusts 7.0 mph

Today
High -- | Low -- °F
--% Chance of Precip.
Yesterday
High -- | Low -- °F
Precip. -- in
6:15 AM 8:18 PM
Waxing Crescent, 48% visible
Pressure 30.30 in
Visibility 10.0 miles
Clouds Mostly Cloudy 6000 ft
Heat Index 76 °F
Dew Point 64 °F
Humidity 69%
Rainfall 0.00 in
Snow Depth Not available.
UV 1 out of 12
Pollen 6.30 out of 12
Air Quality Not available.
Flu Activity Local Activity
METAR KJZI 251215Z AUTO 10009KT 10SM BKN060 24/18 A3030 RMK A02 P000

More Conditions Fewer Conditions

Pressure 30.30 in
Visibility 10.0 miles
Clouds Mostly Cloudy 6000 ft
Heat Index 76 °F
Dew Point 64 °F
Humidity 69%
Rainfall 0.00 in
Snow Depth Not available.
UV 1 out of 12
Pollen 6.30 out of 12
Air Quality Not available.
Flu Activity Local Activity
METAR KJZI 251215Z AUTO 10009KT 10SM BKN060 24/18 A3030 RMK A02 P000

More Conditions Fewer Conditions

10-Day Weather Forecast

Almanac

Astronomy

May. 25, 2015 Rise Set
Actual Time
Civil Twilight
Nautical Twilight
Astronomical Twilight
Moon
Length of Visible Light
Length of Day
Tomorrow will be .
, % of the Moon is Illuminated

Today's Extremes

State Highs State Lows

Community

WunderPhotos

Upload Photos

1,823,987 photos uploaded!

WunderBlogs® & News

Nearby

Air Quality

  Air Quality AQ Index Pollutant
Not available.

Snow Depth

Station Depth Elevation

Earthquake Activity

City Distance Mag. Time & Date
Minimum magnitude displayed is 2.5.

Coastal Water Temperatures

Place Temperature

Stations

Nearby Weather Stations

Station Location Temp. Windchill Dew Point Humidity Wind Precip. Elev Updated Type